Decoded Metar for LEMI ( in ) (IATA:) | Meteo·Mobile Aviation Weather
aviador You're here:

LEMI Decoded Metar

in
Report Time2019-07-24 04:30:00
UTC Time2019-07-24 04:50:29
Flight Rules vfr VFR
Wind340° at 10 kt
Visibility9999 m
Phenomena:N/A
Clouds:N/A
Expected CloudBase > 5,600 ft AGL from Temp-Dew spread
CeilingNone
Temp25°C
Dew Point11°C (42% RH)
AAT21.8°C
QNH1015 hPa
Raw Report
METAR LEMI 240430Z AUTO 34010KT 9999 NCD 25/11 Q1015=

Extra information for LEMI:More info

Social comments